sensor_id;sensor_type;location;lat;lon;timestamp;temperature;humidity
39325;DHT22;25037;49.488;9.900;2022-12-24T00:02:06;12.20;76.70
39325;DHT22;25037;49.488;9.900;2022-12-24T00:04:31;12.20;76.60
39325;DHT22;25037;49.488;9.900;2022-12-24T00:06:57;12.20;76.70
39325;DHT22;25037;49.488;9.900;2022-12-24T00:09:22;12.20;76.60
39325;DHT22;25037;49.488;9.900;2022-12-24T00:11:47;12.20;76.50
39325;DHT22;25037;49.488;9.900;2022-12-24T00:14:13;12.20;76.50
39325;DHT22;25037;49.488;9.900;2022-12-24T00:16:38;12.20;76.40
39325;DHT22;25037;49.488;9.900;2022-12-24T00:19:04;12.30;76.30
39325;DHT22;25037;49.488;9.900;2022-12-24T00:21:29;12.30;76.10
39325;DHT22;25037;49.488;9.900;2022-12-24T00:23:55;12.30;76.10
39325;DHT22;25037;49.488;9.900;2022-12-24T00:26:20;12.20;76.10
39325;DHT22;25037;49.488;9.900;2022-12-24T00:28:46;12.20;76.10
39325;DHT22;25037;49.488;9.900;2022-12-24T00:31:15;12.20;76.00
39325;DHT22;25037;49.488;9.900;2022-12-24T00:33:41;12.20;76.10
39325;DHT22;25037;49.488;9.900;2022-12-24T00:36:06;12.10;76.10
39325;DHT22;25037;49.488;9.900;2022-12-24T00:38:32;12.10;76.20
39325;DHT22;25037;49.488;9.900;2022-12-24T00:40:58;12.10;76.20
39325;DHT22;25037;49.488;9.900;2022-12-24T00:43:24;12.00;76.20
39325;DHT22;25037;49.488;9.900;2022-12-24T00:45:51;12.00;76.20
39325;DHT22;25037;49.488;9.900;2022-12-24T00:48:17;12.00;76.30
39325;DHT22;25037;49.488;9.900;2022-12-24T00:50:42;12.00;76.30
39325;DHT22;25037;49.488;9.900;2022-12-24T00:53:07;11.90;76.30
39325;DHT22;25037;49.488;9.900;2022-12-24T00:55:33;11.90;76.30
39325;DHT22;25037;49.488;9.900;2022-12-24T00:57:58;11.90;76.30
39325;DHT22;25037;49.488;9.900;2022-12-24T01:00:24;11.90;76.30
39325;DHT22;25037;49.488;9.900;2022-12-24T01:02:49;11.90;76.30
39325;DHT22;25037;49.488;9.900;2022-12-24T01:05:15;11.80;76.30
39325;DHT22;25037;49.488;9.900;2022-12-24T01:07:45;11.80;76.30
39325;DHT22;25037;49.488;9.900;2022-12-24T01:10:11;11.80;76.30
39325;DHT22;25037;49.488;9.900;2022-12-24T01:12:37;11.80;76.30
39325;DHT22;25037;49.488;9.900;2022-12-24T01:15:03;11.80;76.30
39325;DHT22;25037;49.488;9.900;2022-12-24T01:17:33;11.80;76.30
39325;DHT22;25037;49.488;9.900;2022-12-24T01:19:58;11.80;76.30
39325;DHT22;25037;49.488;9.900;2022-12-24T01:22:24;11.80;76.30
39325;DHT22;25037;49.488;9.900;2022-12-24T01:24:49;11.70;76.30
39325;DHT22;25037;49.488;9.900;2022-12-24T01:27:15;11.70;76.30
39325;DHT22;25037;49.488;9.900;2022-12-24T01:29:40;11.70;76.30
39325;DHT22;25037;49.488;9.900;2022-12-24T01:32:06;11.60;76.40
39325;DHT22;25037;49.488;9.900;2022-12-24T01:34:31;11.60;76.40
39325;DHT22;25037;49.488;9.900;2022-12-24T01:36:57;11.60;76.40
39325;DHT22;25037;49.488;9.900;2022-12-24T01:39:22;11.60;76.40
39325;DHT22;25037;49.488;9.900;2022-12-24T01:41:47;11.50;76.40
39325;DHT22;25037;49.488;9.900;2022-12-24T01:44:33;11.50;76.40
39325;DHT22;25037;49.488;9.900;2022-12-24T01:49:36;11.40;76.50
39325;DHT22;25037;49.488;9.900;2022-12-24T01:52:04;11.40;76.50
39325;DHT22;25037;49.488;9.900;2022-12-24T01:54:31;11.30;76.50
39325;DHT22;25037;49.488;9.900;2022-12-24T01:57:03;11.30;76.50
39325;DHT22;25037;49.488;9.900;2022-12-24T01:59:31;11.30;76.50
39325;DHT22;25037;49.488;9.900;2022-12-24T02:01:56;11.30;76.60
39325;DHT22;25037;49.488;9.900;2022-12-24T02:04:33;11.20;76.60
39325;DHT22;25037;49.488;9.900;2022-12-24T02:07:00;11.20;76.60
39325;DHT22;25037;49.488;9.900;2022-12-24T02:09:25;11.20;76.60
39325;DHT22;25037;49.488;9.900;2022-12-24T02:11:51;11.10;76.60
39325;DHT22;25037;49.488;9.900;2022-12-24T02:14:16;11.10;76.60
39325;DHT22;25037;49.488;9.900;2022-12-24T02:16:48;11.10;76.60
39325;DHT22;25037;49.488;9.900;2022-12-24T02:21:46;11.10;76.60
39325;DHT22;25037;49.488;9.900;2022-12-24T02:31:51;11.10;76.50
39325;DHT22;25037;49.488;9.900;2022-12-24T02:34:33;11.00;76.50
39325;DHT22;25037;49.488;9.900;2022-12-24T02:37:24;11.00;76.50
39325;DHT22;25037;49.488;9.900;2022-12-24T02:42:16;11.00;76.50
39325;DHT22;25037;49.488;9.900;2022-12-24T02:44:50;10.90;76.50
39325;DHT22;25037;49.488;9.900;2022-12-24T02:47:18;10.90;76.60
39325;DHT22;25037;49.488;9.900;2022-12-24T02:49:46;10.90;76.50
39325;DHT22;25037;49.488;9.900;2022-12-24T02:54:56;10.80;76.40
39325;DHT22;25037;49.488;9.900;2022-12-24T02:57:33;10.80;76.40
39325;DHT22;25037;49.488;9.900;2022-12-24T03:00:06;10.80;76.40
39325;DHT22;25037;49.488;9.900;2022-12-24T03:02:51;10.80;76.40
39325;DHT22;25037;49.488;9.900;2022-12-24T03:05:21;10.80;76.40
39325;DHT22;25037;49.488;9.900;2022-12-24T03:10:23;10.80;76.20
39325;DHT22;25037;49.488;9.900;2022-12-24T03:12:52;10.80;76.20
39325;DHT22;25037;49.488;9.900;2022-12-24T03:15:21;10.80;76.20
39325;DHT22;25037;49.488;9.900;2022-12-24T03:17:47;10.70;76.20
39325;DHT22;25037;49.488;9.900;2022-12-24T03:20:15;10.70;76.20
39325;DHT22;25037;49.488;9.900;2022-12-24T03:22:41;10.80;76.10
39325;DHT22;25037;49.488;9.900;2022-12-24T03:25:07;10.70;76.00
39325;DHT22;25037;49.488;9.900;2022-12-24T03:27:33;10.70;76.10
39325;DHT22;25037;49.488;9.900;2022-12-24T03:29:59;10.70;76.00
39325;DHT22;25037;49.488;9.900;2022-12-24T03:32:27;10.70;76.00
39325;DHT22;25037;49.488;9.900;2022-12-24T03:34:53;10.70;76.00
39325;DHT22;25037;49.488;9.900;2022-12-24T03:37:19;10.70;76.00
39325;DHT22;25037;49.488;9.900;2022-12-24T03:39:44;10.60;75.90
39325;DHT22;25037;49.488;9.900;2022-12-24T03:42:09;10.70;75.90
39325;DHT22;25037;49.488;9.900;2022-12-24T03:44:35;10.60;75.90
39325;DHT22;25037;49.488;9.900;2022-12-24T03:47:00;10.60;75.90
39325;DHT22;25037;49.488;9.900;2022-12-24T03:49:26;10.60;76.00
39325;DHT22;25037;49.488;9.900;2022-12-24T03:51:52;10.60;75.90
39325;DHT22;25037;49.488;9.900;2022-12-24T03:54:17;10.50;75.90
39325;DHT22;25037;49.488;9.900;2022-12-24T03:56:43;10.60;76.00
39325;DHT22;25037;49.488;9.900;2022-12-24T03:59:08;10.60;76.00
39325;DHT22;25037;49.488;9.900;2022-12-24T04:01:34;10.60;76.00
39325;DHT22;25037;49.488;9.900;2022-12-24T04:04:00;10.60;76.00
39325;DHT22;25037;49.488;9.900;2022-12-24T04:06:26;10.60;76.00
39325;DHT22;25037;49.488;9.900;2022-12-24T04:08:51;10.60;76.00
39325;DHT22;25037;49.488;9.900;2022-12-24T04:11:17;10.60;76.00
39325;DHT22;25037;49.488;9.900;2022-12-24T04:13:42;10.60;76.00
39325;DHT22;25037;49.488;9.900;2022-12-24T04:16:09;10.60;76.00
39325;DHT22;25037;49.488;9.900;2022-12-24T04:18:35;10.60;76.00
39325;DHT22;25037;49.488;9.900;2022-12-24T04:21:01;10.70;76.00
39325;DHT22;25037;49.488;9.900;2022-12-24T04:23:29;10.70;76.10
39325;DHT22;25037;49.488;9.900;2022-12-24T04:25:54;10.70;76.10
39325;DHT22;25037;49.488;9.900;2022-12-24T04:28:20;10.70;76.10
39325;DHT22;25037;49.488;9.900;2022-12-24T04:30:45;10.70;76.10
39325;DHT22;25037;49.488;9.900;2022-12-24T04:33:11;10.80;76.10
39325;DHT22;25037;49.488;9.900;2022-12-24T04:35:39;10.70;76.00
39325;DHT22;25037;49.488;9.900;2022-12-24T04:38:05;10.70;76.10
39325;DHT22;25037;49.488;9.900;2022-12-24T04:40:31;10.80;76.10
39325;DHT22;25037;49.488;9.900;2022-12-24T04:42:56;10.80;76.10
39325;DHT22;25037;49.488;9.900;2022-12-24T04:45:22;10.80;76.10
39325;DHT22;25037;49.488;9.900;2022-12-24T04:47:47;10.90;76.10
39325;DHT22;25037;49.488;9.900;2022-12-24T04:50:13;10.90;76.10
39325;DHT22;25037;49.488;9.900;2022-12-24T04:52:38;10.80;76.10
39325;DHT22;25037;49.488;9.900;2022-12-24T04:55:04;10.80;76.10
39325;DHT22;25037;49.488;9.900;2022-12-24T04:57:30;10.90;76.10
39325;DHT22;25037;49.488;9.900;2022-12-24T04:59:56;10.90;76.10
39325;DHT22;25037;49.488;9.900;2022-12-24T05:02:21;10.90;76.10
39325;DHT22;25037;49.488;9.900;2022-12-24T05:04:46;10.90;76.10
39325;DHT22;25037;49.488;9.900;2022-12-24T05:07:12;10.90;76.10
39325;DHT22;25037;49.488;9.900;2022-12-24T05:09:37;10.90;76.10
39325;DHT22;25037;49.488;9.900;2022-12-24T05:12:03;11.00;76.10
39325;DHT22;25037;49.488;9.900;2022-12-24T05:14:28;11.00;76.10
39325;DHT22;25037;49.488;9.900;2022-12-24T05:16:54;11.00;76.10
39325;DHT22;25037;49.488;9.900;2022-12-24T05:19:19;11.10;76.10
39325;DHT22;25037;49.488;9.900;2022-12-24T05:21:45;11.10;76.10
39325;DHT22;25037;49.488;9.900;2022-12-24T05:24:30;11.10;76.10
39325;DHT22;25037;49.488;9.900;2022-12-24T05:27:14;11.10;76.00
39325;DHT22;25037;49.488;9.900;2022-12-24T05:29:40;11.20;76.00
39325;DHT22;25037;49.488;9.900;2022-12-24T05:32:05;11.30;76.00
39325;DHT22;25037;49.488;9.900;2022-12-24T05:34:30;11.30;75.90
39325;DHT22;25037;49.488;9.900;2022-12-24T05:36:56;11.30;75.90
39325;DHT22;25037;49.488;9.900;2022-12-24T05:39:21;11.40;75.90
39325;DHT22;25037;49.488;9.900;2022-12-24T05:41:47;11.40;75.90
39325;DHT22;25037;49.488;9.900;2022-12-24T05:44:12;11.40;75.90
39325;DHT22;25037;49.488;9.900;2022-12-24T05:46:38;11.50;75.90
39325;DHT22;25037;49.488;9.900;2022-12-24T05:49:04;11.50;75.90
39325;DHT22;25037;49.488;9.900;2022-12-24T05:51:29;11.50;75.80
39325;DHT22;25037;49.488;9.900;2022-12-24T05:53:55;11.50;75.90
39325;DHT22;25037;49.488;9.900;2022-12-24T05:56:21;11.50;75.90
39325;DHT22;25037;49.488;9.900;2022-12-24T05:58:47;11.50;75.90
39325;DHT22;25037;49.488;9.900;2022-12-24T06:01:13;11.50;75.90
39325;DHT22;25037;49.488;9.900;2022-12-24T06:03:38;11.50;75.90
39325;DHT22;25037;49.488;9.900;2022-12-24T06:06:08;11.50;75.90
39325;DHT22;25037;49.488;9.900;2022-12-24T06:08:34;11.60;76.00
39325;DHT22;25037;49.488;9.900;2022-12-24T06:11:00;11.60;75.90
39325;DHT22;25037;49.488;9.900;2022-12-24T06:13:26;11.60;75.90
39325;DHT22;25037;49.488;9.900;2022-12-24T06:15:55;11.60;76.00
39325;DHT22;25037;49.488;9.900;2022-12-24T06:18:21;11.60;76.00
39325;DHT22;25037;49.488;9.900;2022-12-24T06:20:50;11.70;76.00
39325;DHT22;25037;49.488;9.900;2022-12-24T06:23:16;11.60;76.00
39325;DHT22;25037;49.488;9.900;2022-12-24T06:25:41;11.70;76.00
39325;DHT22;25037;49.488;9.900;2022-12-24T06:28:07;11.60;76.00
39325;DHT22;25037;49.488;9.900;2022-12-24T06:30:32;11.70;76.00
39325;DHT22;25037;49.488;9.900;2022-12-24T06:32:58;11.70;76.00
39325;DHT22;25037;49.488;9.900;2022-12-24T06:35:23;11.60;76.00
39325;DHT22;25037;49.488;9.900;2022-12-24T06:37:49;11.60;76.00
39325;DHT22;25037;49.488;9.900;2022-12-24T06:40:14;11.60;76.00
39325;DHT22;25037;49.488;9.900;2022-12-24T06:42:39;11.50;76.00
39325;DHT22;25037;49.488;9.900;2022-12-24T06:45:05;11.40;76.10
39325;DHT22;25037;49.488;9.900;2022-12-24T06:47:31;11.40;76.10
39325;DHT22;25037;49.488;9.900;2022-12-24T06:49:56;11.40;76.20
39325;DHT22;25037;49.488;9.900;2022-12-24T06:52:22;11.40;76.20
39325;DHT22;25037;49.488;9.900;2022-12-24T06:54:47;11.30;76.10
39325;DHT22;25037;49.488;9.900;2022-12-24T06:57:13;11.30;76.20
39325;DHT22;25037;49.488;9.900;2022-12-24T06:59:38;11.30;76.20
39325;DHT22;25037;49.488;9.900;2022-12-24T07:02:03;11.30;76.20
39325;DHT22;25037;49.488;9.900;2022-12-24T07:04:29;11.30;76.20
39325;DHT22;25037;49.488;9.900;2022-12-24T07:06:54;11.20;76.20
39325;DHT22;25037;49.488;9.900;2022-12-24T07:09:20;11.20;76.30
39325;DHT22;25037;49.488;9.900;2022-12-24T07:11:45;11.20;76.30
39325;DHT22;25037;49.488;9.900;2022-12-24T07:14:13;11.20;76.30
39325;DHT22;25037;49.488;9.900;2022-12-24T07:16:39;11.20;76.30
39325;DHT22;25037;49.488;9.900;2022-12-24T07:19:04;11.20;76.30
39325;DHT22;25037;49.488;9.900;2022-12-24T07:21:29;11.20;76.30
39325;DHT22;25037;49.488;9.900;2022-12-24T07:23:55;11.20;76.30
39325;DHT22;25037;49.488;9.900;2022-12-24T07:26:20;11.30;76.30
39325;DHT22;25037;49.488;9.900;2022-12-24T07:28:46;11.30;76.30
39325;DHT22;25037;49.488;9.900;2022-12-24T07:31:11;11.30;76.30
39325;DHT22;25037;49.488;9.900;2022-12-24T07:33:37;11.40;76.30
39325;DHT22;25037;49.488;9.900;2022-12-24T07:36:03;11.40;76.30
39325;DHT22;25037;49.488;9.900;2022-12-24T07:38:30;11.50;76.20
39325;DHT22;25037;49.488;9.900;2022-12-24T07:40:56;11.50;76.20
39325;DHT22;25037;49.488;9.900;2022-12-24T07:43:22;11.60;76.10
39325;DHT22;25037;49.488;9.900;2022-12-24T07:45:48;11.60;76.20
39325;DHT22;25037;49.488;9.900;2022-12-24T07:48:14;11.70;76.10
39325;DHT22;25037;49.488;9.900;2022-12-24T07:50:40;11.70;76.10
39325;DHT22;25037;49.488;9.900;2022-12-24T07:53:05;11.70;76.00
39325;DHT22;25037;49.488;9.900;2022-12-24T07:55:30;11.80;76.00
39325;DHT22;25037;49.488;9.900;2022-12-24T07:57:56;11.80;76.00
39325;DHT22;25037;49.488;9.900;2022-12-24T08:00:21;11.80;76.00
39325;DHT22;25037;49.488;9.900;2022-12-24T08:02:47;11.80;76.00
39325;DHT22;25037;49.488;9.900;2022-12-24T08:05:12;11.90;75.90
39325;DHT22;25037;49.488;9.900;2022-12-24T08:07:38;12.00;75.90
39325;DHT22;25037;49.488;9.900;2022-12-24T08:10:03;12.00;75.80
39325;DHT22;25037;49.488;9.900;2022-12-24T08:12:29;12.00;75.80
39325;DHT22;25037;49.488;9.900;2022-12-24T08:14:54;12.00;75.80
39325;DHT22;25037;49.488;9.900;2022-12-24T08:17:20;12.00;75.80
39325;DHT22;25037;49.488;9.900;2022-12-24T08:19:45;12.00;75.80
39325;DHT22;25037;49.488;9.900;2022-12-24T08:22:11;12.00;75.80
39325;DHT22;25037;49.488;9.900;2022-12-24T08:24:36;12.00;75.80
39325;DHT22;25037;49.488;9.900;2022-12-24T08:27:02;12.10;75.80
39325;DHT22;25037;49.488;9.900;2022-12-24T08:29:27;12.10;75.80
39325;DHT22;25037;49.488;9.900;2022-12-24T08:31:53;12.10;76.00
39325;DHT22;25037;49.488;9.900;2022-12-24T08:34:18;12.30;75.80
39325;DHT22;25037;49.488;9.900;2022-12-24T08:36:44;12.30;75.60
39325;DHT22;25037;49.488;9.900;2022-12-24T08:39:09;12.40;75.60
39325;DHT22;25037;49.488;9.900;2022-12-24T08:41:35;12.40;75.50
39325;DHT22;25037;49.488;9.900;2022-12-24T08:44:00;12.40;75.50
39325;DHT22;25037;49.488;9.900;2022-12-24T08:46:26;12.50;75.50
39325;DHT22;25037;49.488;9.900;2022-12-24T08:48:51;12.50;75.40
39325;DHT22;25037;49.488;9.900;2022-12-24T08:51:17;12.50;75.40
39325;DHT22;25037;49.488;9.900;2022-12-24T08:53:43;12.60;75.30
39325;DHT22;25037;49.488;9.900;2022-12-24T08:56:09;12.70;75.30
39325;DHT22;25037;49.488;9.900;2022-12-24T08:58:34;12.80;75.20
39325;DHT22;25037;49.488;9.900;2022-12-24T09:01:00;12.90;75.10
39325;DHT22;25037;49.488;9.900;2022-12-24T09:03:25;12.90;75.00
39325;DHT22;25037;49.488;9.900;2022-12-24T09:05:51;12.90;75.00
39325;DHT22;25037;49.488;9.900;2022-12-24T09:08:18;12.90;75.00
39325;DHT22;25037;49.488;9.900;2022-12-24T09:10:43;12.90;75.00
39325;DHT22;25037;49.488;9.900;2022-12-24T09:13:09;13.00;75.00
39325;DHT22;25037;49.488;9.900;2022-12-24T09:15:34;13.00;74.90
39325;DHT22;25037;49.488;9.900;2022-12-24T09:18:00;13.20;74.80
39325;DHT22;25037;49.488;9.900;2022-12-24T09:20:25;13.30;74.60
39325;DHT22;25037;49.488;9.900;2022-12-24T09:22:51;13.40;74.40
39325;DHT22;25037;49.488;9.900;2022-12-24T09:25:16;13.70;74.20
39325;DHT22;25037;49.488;9.900;2022-12-24T09:27:42;13.90;73.90
39325;DHT22;25037;49.488;9.900;2022-12-24T09:30:07;14.20;73.70
39325;DHT22;25037;49.488;9.900;2022-12-24T09:32:33;14.30;73.40
39325;DHT22;25037;49.488;9.900;2022-12-24T09:34:59;14.40;73.30
39325;DHT22;25037;49.488;9.900;2022-12-24T09:37:24;14.40;73.30
39325;DHT22;25037;49.488;9.900;2022-12-24T09:39:50;14.30;73.30
39325;DHT22;25037;49.488;9.900;2022-12-24T09:44:45;14.20;73.30
39325;DHT22;25037;49.488;9.900;2022-12-24T09:47:20;14.10;73.30
39325;DHT22;25037;49.488;9.900;2022-12-24T09:49:47;14.10;73.40
39325;DHT22;25037;49.488;9.900;2022-12-24T09:52:15;14.00;73.40
39325;DHT22;25037;49.488;9.900;2022-12-24T09:54:46;14.00;73.10
39325;DHT22;25037;49.488;9.900;2022-12-24T09:57:16;14.00;73.20
39325;DHT22;25037;49.488;9.900;2022-12-24T09:59:44;14.20;73.20
39325;DHT22;25037;49.488;9.900;2022-12-24T10:02:13;14.20;73.00
39325;DHT22;25037;49.488;9.900;2022-12-24T10:04:39;14.30;72.80
39325;DHT22;25037;49.488;9.900;2022-12-24T10:07:09;14.40;72.30
39325;DHT22;25037;49.488;9.900;2022-12-24T10:09:43;14.60;72.20
39325;DHT22;25037;49.488;9.900;2022-12-24T10:12:18;14.70;71.80
39325;DHT22;25037;49.488;9.900;2022-12-24T10:20:20;14.60;71.60
39325;DHT22;25037;49.488;9.900;2022-12-24T10:22:52;14.50;71.60
39325;DHT22;25037;49.488;9.900;2022-12-24T10:25:27;14.50;71.80
39325;DHT22;25037;49.488;9.900;2022-12-24T10:27:54;14.50;71.80
39325;DHT22;25037;49.488;9.900;2022-12-24T10:30:21;14.50;71.80
39325;DHT22;25037;49.488;9.900;2022-12-24T10:32:47;14.60;71.90
39325;DHT22;25037;49.488;9.900;2022-12-24T10:37:39;14.50;71.50
39325;DHT22;25037;49.488;9.900;2022-12-24T10:40:04;14.50;71.70
39325;DHT22;25037;49.488;9.900;2022-12-24T10:42:40;14.60;71.80
39325;DHT22;25037;49.488;9.900;2022-12-24T10:45:09;14.60;71.70
39325;DHT22;25037;49.488;9.900;2022-12-24T10:47:39;14.60;71.60
39325;DHT22;25037;49.488;9.900;2022-12-24T10:50:25;14.70;71.60
39325;DHT22;25037;49.488;9.900;2022-12-24T10:52:52;14.80;71.50
39325;DHT22;25037;49.488;9.900;2022-12-24T10:55:21;14.80;71.40
39325;DHT22;25037;49.488;9.900;2022-12-24T10:58:01;14.80;71.40
39325;DHT22;25037;49.488;9.900;2022-12-24T11:00:28;14.80;71.30
39325;DHT22;25037;49.488;9.900;2022-12-24T11:05:38;14.90;71.30
39325;DHT22;25037;49.488;9.900;2022-12-24T11:10:29;15.00;71.20
39325;DHT22;25037;49.488;9.900;2022-12-24T11:12:55;15.00;71.00
39325;DHT22;25037;49.488;9.900;2022-12-24T11:15:39;15.00;71.10
39325;DHT22;25037;49.488;9.900;2022-12-24T11:18:05;15.10;70.80
39325;DHT22;25037;49.488;9.900;2022-12-24T11:20:37;15.00;70.70
39325;DHT22;25037;49.488;9.900;2022-12-24T11:23:03;15.00;70.80
39325;DHT22;25037;49.488;9.900;2022-12-24T11:25:31;15.00;70.80
39325;DHT22;25037;49.488;9.900;2022-12-24T11:28:11;14.90;70.80
39325;DHT22;25037;49.488;9.900;2022-12-24T11:30:37;14.90;70.80
39325;DHT22;25037;49.488;9.900;2022-12-24T11:35:29;14.80;70.90
39325;DHT22;25037;49.488;9.900;2022-12-24T11:40:24;14.70;71.00
39325;DHT22;25037;49.488;9.900;2022-12-24T11:42:52;14.70;70.90
39325;DHT22;25037;49.488;9.900;2022-12-24T11:45:23;14.70;70.90
39325;DHT22;25037;49.488;9.900;2022-12-24T11:47:50;14.70;70.90
39325;DHT22;25037;49.488;9.900;2022-12-24T11:50:23;14.80;70.70
39325;DHT22;25037;49.488;9.900;2022-12-24T11:55:40;14.90;69.90
39325;DHT22;25037;49.488;9.900;2022-12-24T11:58:20;15.00;70.00
39325;DHT22;25037;49.488;9.900;2022-12-24T12:00:47;15.00;69.90
39325;DHT22;25037;49.488;9.900;2022-12-24T12:05:48;15.20;69.70
39325;DHT22;25037;49.488;9.900;2022-12-24T12:08:16;15.30;69.50
39325;DHT22;25037;49.488;9.900;2022-12-24T12:10:42;15.30;69.50
39325;DHT22;25037;49.488;9.900;2022-12-24T12:13:11;15.30;69.50
39325;DHT22;25037;49.488;9.900;2022-12-24T12:15:44;15.40;69.50
39325;DHT22;25037;49.488;9.900;2022-12-24T12:18:15;15.50;69.50
39325;DHT22;25037;49.488;9.900;2022-12-24T12:21:24;15.50;69.40
39325;DHT22;25037;49.488;9.900;2022-12-24T12:23:30;15.50;69.00
39325;DHT22;25037;49.488;9.900;2022-12-24T12:26:01;15.50;69.30
39325;DHT22;25037;49.488;9.900;2022-12-24T12:31:18;15.50;69.50
39325;DHT22;25037;49.488;9.900;2022-12-24T12:36:33;15.50;69.40
39325;DHT22;25037;49.488;9.900;2022-12-24T12:39:00;15.40;69.50
39325;DHT22;25037;49.488;9.900;2022-12-24T12:41:29;15.30;69.40
39325;DHT22;25037;49.488;9.900;2022-12-24T12:44:10;15.20;69.60
39325;DHT22;25037;49.488;9.900;2022-12-24T12:51:50;15.10;69.60
39325;DHT22;25037;49.488;9.900;2022-12-24T12:56:47;15.30;69.50
39325;DHT22;25037;49.488;9.900;2022-12-24T13:01:56;15.30;69.60
39325;DHT22;25037;49.488;9.900;2022-12-24T13:07:02;15.20;69.50
39325;DHT22;25037;49.488;9.900;2022-12-24T13:14:35;15.10;69.70
39325;DHT22;25037;49.488;9.900;2022-12-24T13:19:59;15.10;69.80
39325;DHT22;25037;49.488;9.900;2022-12-24T13:22:29;15.00;69.90
39325;DHT22;25037;49.488;9.900;2022-12-24T13:24:55;15.00;69.60
39325;DHT22;25037;49.488;9.900;2022-12-24T13:27:25;15.00;69.80
39325;DHT22;25037;49.488;9.900;2022-12-24T13:30:05;15.00;69.80
39325;DHT22;25037;49.488;9.900;2022-12-24T13:32:49;15.00;69.40
39325;DHT22;25037;49.488;9.900;2022-12-24T13:37:43;15.00;69.30
39325;DHT22;25037;49.488;9.900;2022-12-24T13:47:53;15.10;69.30
39325;DHT22;25037;49.488;9.900;2022-12-24T13:50:22;15.20;69.20
39325;DHT22;25037;49.488;9.900;2022-12-24T13:52:50;15.20;69.10
39325;DHT22;25037;49.488;9.900;2022-12-24T13:55:16;15.10;69.10
39325;DHT22;25037;49.488;9.900;2022-12-24T13:57:43;15.00;69.20
39325;DHT22;25037;49.488;9.900;2022-12-24T14:05:43;14.90;69.40
39325;DHT22;25037;49.488;9.900;2022-12-24T14:08:12;14.80;69.50
39325;DHT22;25037;49.488;9.900;2022-12-24T14:10:39;14.80;69.60
39325;DHT22;25037;49.488;9.900;2022-12-24T14:13:46;14.90;69.70
39325;DHT22;25037;49.488;9.900;2022-12-24T14:18:21;14.90;69.60
39325;DHT22;25037;49.488;9.900;2022-12-24T14:20:48;14.80;69.70
39325;DHT22;25037;49.488;9.900;2022-12-24T14:23:29;14.80;69.70
39325;DHT22;25037;49.488;9.900;2022-12-24T14:25:56;14.70;69.60
39325;DHT22;25037;49.488;9.900;2022-12-24T14:28:23;14.60;69.80
39325;DHT22;25037;49.488;9.900;2022-12-24T14:31:02;14.50;69.90
39325;DHT22;25037;49.488;9.900;2022-12-24T14:33:29;14.40;69.90
39325;DHT22;25037;49.488;9.900;2022-12-24T14:35:54;14.30;70.10
39325;DHT22;25037;49.488;9.900;2022-12-24T14:38:21;14.20;70.20
39325;DHT22;25037;49.488;9.900;2022-12-24T14:43:49;14.00;70.50
39325;DHT22;25037;49.488;9.900;2022-12-24T14:46:31;13.90;70.60
39325;DHT22;25037;49.488;9.900;2022-12-24T14:49:10;13.80;70.70
39325;DHT22;25037;49.488;9.900;2022-12-24T14:54:27;13.80;70.80
39325;DHT22;25037;49.488;9.900;2022-12-24T15:02:46;13.60;71.10
39325;DHT22;25037;49.488;9.900;2022-12-24T15:05:19;13.50;71.10
39325;DHT22;25037;49.488;9.900;2022-12-24T15:10:22;13.50;71.30
39325;DHT22;25037;49.488;9.900;2022-12-24T15:12:49;13.40;71.30
39325;DHT22;25037;49.488;9.900;2022-12-24T15:15:18;13.30;71.30
39325;DHT22;25037;49.488;9.900;2022-12-24T15:17:44;13.30;71.30
39325;DHT22;25037;49.488;9.900;2022-12-24T15:20:13;13.20;71.40
39325;DHT22;25037;49.488;9.900;2022-12-24T15:22:40;13.10;71.40
39325;DHT22;25037;49.488;9.900;2022-12-24T15:25:17;13.00;71.50
39325;DHT22;25037;49.488;9.900;2022-12-24T15:27:43;12.90;71.60
39325;DHT22;25037;49.488;9.900;2022-12-24T15:30:16;12.90;71.70
39325;DHT22;25037;49.488;9.900;2022-12-24T15:32:42;12.80;71.80
39325;DHT22;25037;49.488;9.900;2022-12-24T15:37:52;12.60;71.90
39325;DHT22;25037;49.488;9.900;2022-12-24T15:40:21;12.50;72.00
39325;DHT22;25037;49.488;9.900;2022-12-24T15:42:47;12.40;72.10
39325;DHT22;25037;49.488;9.900;2022-12-24T15:45:23;12.30;72.10
39325;DHT22;25037;49.488;9.900;2022-12-24T15:47:59;12.30;72.20
39325;DHT22;25037;49.488;9.900;2022-12-24T15:50:29;12.20;72.20
39325;DHT22;25037;49.488;9.900;2022-12-24T15:52:55;12.20;72.20
39325;DHT22;25037;49.488;9.900;2022-12-24T15:55:28;12.10;72.30
39325;DHT22;25037;49.488;9.900;2022-12-24T15:57:55;12.00;72.40
39325;DHT22;25037;49.488;9.900;2022-12-24T16:00:21;12.00;72.40
39325;DHT22;25037;49.488;9.900;2022-12-24T16:02:48;11.90;72.40
39325;DHT22;25037;49.488;9.900;2022-12-24T16:05:17;11.90;72.50
39325;DHT22;25037;49.488;9.900;2022-12-24T16:07:58;11.80;72.50
39325;DHT22;25037;49.488;9.900;2022-12-24T16:10:33;11.80;72.50
39325;DHT22;25037;49.488;9.900;2022-12-24T16:12:59;11.70;72.50
39325;DHT22;25037;49.488;9.900;2022-12-24T16:15:24;11.70;72.50
39325;DHT22;25037;49.488;9.900;2022-12-24T16:17:50;11.50;72.60
39325;DHT22;25037;49.488;9.900;2022-12-24T16:20:19;11.50;72.60
39325;DHT22;25037;49.488;9.900;2022-12-24T16:22:46;11.40;72.70
39325;DHT22;25037;49.488;9.900;2022-12-24T16:27:45;11.30;72.80
39325;DHT22;25037;49.488;9.900;2022-12-24T16:30:10;11.20;72.80
39325;DHT22;25037;49.488;9.900;2022-12-24T16:32:36;11.20;72.90
39325;DHT22;25037;49.488;9.900;2022-12-24T16:35:04;11.20;73.00
39325;DHT22;25037;49.488;9.900;2022-12-24T16:37:29;11.10;73.10
39325;DHT22;25037;49.488;9.900;2022-12-24T16:39:55;11.20;73.00
39325;DHT22;25037;49.488;9.900;2022-12-24T16:42:21;11.20;73.00
39325;DHT22;25037;49.488;9.900;2022-12-24T16:45:06;11.20;72.90
39325;DHT22;25037;49.488;9.900;2022-12-24T16:47:31;11.20;72.80
39325;DHT22;25037;49.488;9.900;2022-12-24T16:49:58;11.30;72.80
39325;DHT22;25037;49.488;9.900;2022-12-24T16:52:24;11.30;72.80
39325;DHT22;25037;49.488;9.900;2022-12-24T16:54:52;11.20;72.80
39325;DHT22;25037;49.488;9.900;2022-12-24T16:57:18;11.30;72.80
39325;DHT22;25037;49.488;9.900;2022-12-24T16:59:43;11.20;72.90
39325;DHT22;25037;49.488;9.900;2022-12-24T17:02:13;11.20;73.00
39325;DHT22;25037;49.488;9.900;2022-12-24T17:04:39;11.20;73.00
39325;DHT22;25037;49.488;9.900;2022-12-24T17:07:04;11.20;73.10
39325;DHT22;25037;49.488;9.900;2022-12-24T17:09:30;11.10;73.10
39325;DHT22;25037;49.488;9.900;2022-12-24T17:11:55;11.20;73.20
39325;DHT22;25037;49.488;9.900;2022-12-24T17:14:21;11.20;73.20
39325;DHT22;25037;49.488;9.900;2022-12-24T17:16:46;11.20;73.20
39325;DHT22;25037;49.488;9.900;2022-12-24T17:19:12;11.20;73.10
39325;DHT22;25037;49.488;9.900;2022-12-24T17:21:37;11.30;73.00
39325;DHT22;25037;49.488;9.900;2022-12-24T17:24:03;11.30;72.90